sensor_id;sensor_type;location;lat;lon;timestamp;temperature;humidity
13610;DHT22;6876;50.788;4.940;2022-07-18T00:01:08;17.60;99.90
13610;DHT22;6876;50.788;4.940;2022-07-18T00:03:57;17.70;99.90
13610;DHT22;6876;50.788;4.940;2022-07-18T00:06:44;17.60;99.90
13610;DHT22;6876;50.788;4.940;2022-07-18T00:09:31;17.50;99.90
13610;DHT22;6876;50.788;4.940;2022-07-18T00:12:18;17.40;99.90
13610;DHT22;6876;50.788;4.940;2022-07-18T00:15:07;17.30;99.90
13610;DHT22;6876;50.788;4.940;2022-07-18T00:17:55;17.20;99.90
13610;DHT22;6876;50.788;4.940;2022-07-18T00:20:45;17.20;99.90
13610;DHT22;6876;50.788;4.940;2022-07-18T00:23:32;17.20;99.90
13610;DHT22;6876;50.788;4.940;2022-07-18T00:26:20;17.10;99.90
13610;DHT22;6876;50.788;4.940;2022-07-18T00:29:07;17.10;99.90
13610;DHT22;6876;50.788;4.940;2022-07-18T00:31:54;17.10;99.90
13610;DHT22;6876;50.788;4.940;2022-07-18T00:34:42;17.10;99.90
13610;DHT22;6876;50.788;4.940;2022-07-18T00:37:30;17.00;99.90
13610;DHT22;6876;50.788;4.940;2022-07-18T00:40:18;16.90;99.90
13610;DHT22;6876;50.788;4.940;2022-07-18T00:43:05;16.80;99.90
13610;DHT22;6876;50.788;4.940;2022-07-18T00:45:52;16.80;99.90
13610;DHT22;6876;50.788;4.940;2022-07-18T00:48:41;16.90;99.90
13610;DHT22;6876;50.788;4.940;2022-07-18T00:51:29;16.90;99.90
13610;DHT22;6876;50.788;4.940;2022-07-18T00:54:18;16.80;99.90
13610;DHT22;6876;50.788;4.940;2022-07-18T00:57:05;16.80;99.90
13610;DHT22;6876;50.788;4.940;2022-07-18T00:59:54;16.90;99.90
13610;DHT22;6876;50.788;4.940;2022-07-18T01:02:58;16.90;99.90
13610;DHT22;6876;50.788;4.940;2022-07-18T01:05:46;16.90;99.90
13610;DHT22;6876;50.788;4.940;2022-07-18T01:08:33;16.90;99.90
13610;DHT22;6876;50.788;4.940;2022-07-18T01:11:23;17.00;99.90
13610;DHT22;6876;50.788;4.940;2022-07-18T01:14:11;17.00;99.90
13610;DHT22;6876;50.788;4.940;2022-07-18T01:16:58;16.80;99.90
13610;DHT22;6876;50.788;4.940;2022-07-18T01:19:46;16.70;99.90
13610;DHT22;6876;50.788;4.940;2022-07-18T01:22:35;16.70;99.90
13610;DHT22;6876;50.788;4.940;2022-07-18T01:25:25;16.60;99.90
13610;DHT22;6876;50.788;4.940;2022-07-18T01:28:12;16.50;99.90
13610;DHT22;6876;50.788;4.940;2022-07-18T01:31:00;16.50;99.90
13610;DHT22;6876;50.788;4.940;2022-07-18T01:33:47;16.50;99.90
13610;DHT22;6876;50.788;4.940;2022-07-18T01:36:34;16.60;99.90
13610;DHT22;6876;50.788;4.940;2022-07-18T01:39:23;16.80;99.90
13610;DHT22;6876;50.788;4.940;2022-07-18T01:42:10;16.90;99.90
13610;DHT22;6876;50.788;4.940;2022-07-18T01:44:58;17.00;99.90
13610;DHT22;6876;50.788;4.940;2022-07-18T01:47:45;17.10;99.90
13610;DHT22;6876;50.788;4.940;2022-07-18T01:50:32;17.00;99.90
13610;DHT22;6876;50.788;4.940;2022-07-18T01:53:20;16.90;99.90
13610;DHT22;6876;50.788;4.940;2022-07-18T01:56:12;16.90;99.90
13610;DHT22;6876;50.788;4.940;2022-07-18T01:59:01;16.80;99.90
13610;DHT22;6876;50.788;4.940;2022-07-18T02:01:49;16.70;99.90
13610;DHT22;6876;50.788;4.940;2022-07-18T02:04:36;16.60;99.90
13610;DHT22;6876;50.788;4.940;2022-07-18T02:07:41;16.40;99.90
13610;DHT22;6876;50.788;4.940;2022-07-18T02:10:29;16.20;99.90
13610;DHT22;6876;50.788;4.940;2022-07-18T02:13:17;16.10;99.90
13610;DHT22;6876;50.788;4.940;2022-07-18T02:16:06;16.10;99.90
13610;DHT22;6876;50.788;4.940;2022-07-18T02:18:54;16.30;99.90
13610;DHT22;6876;50.788;4.940;2022-07-18T02:21:41;16.30;99.90
13610;DHT22;6876;50.788;4.940;2022-07-18T02:24:28;16.30;99.90
13610;DHT22;6876;50.788;4.940;2022-07-18T02:27:15;16.30;99.90
13610;DHT22;6876;50.788;4.940;2022-07-18T02:30:06;16.30;99.90
13610;DHT22;6876;50.788;4.940;2022-07-18T02:32:53;16.10;99.90
13610;DHT22;6876;50.788;4.940;2022-07-18T02:35:41;16.00;99.90
13610;DHT22;6876;50.788;4.940;2022-07-18T02:38:29;15.80;99.90
13610;DHT22;6876;50.788;4.940;2022-07-18T02:41:16;15.80;99.90
13610;DHT22;6876;50.788;4.940;2022-07-18T02:44:04;15.80;99.90
13610;DHT22;6876;50.788;4.940;2022-07-18T02:46:52;15.70;99.90
13610;DHT22;6876;50.788;4.940;2022-07-18T02:49:39;15.50;99.90
13610;DHT22;6876;50.788;4.940;2022-07-18T02:52:27;15.50;99.90
13610;DHT22;6876;50.788;4.940;2022-07-18T02:55:14;15.40;99.90
13610;DHT22;6876;50.788;4.940;2022-07-18T02:58:02;15.40;99.90
13610;DHT22;6876;50.788;4.940;2022-07-18T03:00:49;15.40;99.90
13610;DHT22;6876;50.788;4.940;2022-07-18T03:03:38;15.50;99.90
13610;DHT22;6876;50.788;4.940;2022-07-18T03:06:25;15.40;99.90
13610;DHT22;6876;50.788;4.940;2022-07-18T03:09:13;15.50;99.90
13610;DHT22;6876;50.788;4.940;2022-07-18T03:12:00;15.50;99.90
13610;DHT22;6876;50.788;4.940;2022-07-18T03:14:47;15.40;99.90
13610;DHT22;6876;50.788;4.940;2022-07-18T03:17:35;15.40;99.90
13610;DHT22;6876;50.788;4.940;2022-07-18T03:20:23;15.50;99.90
13610;DHT22;6876;50.788;4.940;2022-07-18T03:23:11;15.50;99.90
13610;DHT22;6876;50.788;4.940;2022-07-18T03:25:58;15.40;99.90
13610;DHT22;6876;50.788;4.940;2022-07-18T03:28:45;15.30;99.90
13610;DHT22;6876;50.788;4.940;2022-07-18T03:31:32;15.20;99.90
13610;DHT22;6876;50.788;4.940;2022-07-18T03:34:20;15.20;99.90
13610;DHT22;6876;50.788;4.940;2022-07-18T03:37:08;15.10;99.90
13610;DHT22;6876;50.788;4.940;2022-07-18T03:39:55;15.10;99.90
13610;DHT22;6876;50.788;4.940;2022-07-18T03:42:43;14.90;99.90
13610;DHT22;6876;50.788;4.940;2022-07-18T03:45:30;14.80;99.90
13610;DHT22;6876;50.788;4.940;2022-07-18T03:48:17;14.80;99.90
13610;DHT22;6876;50.788;4.940;2022-07-18T03:51:04;14.80;99.90
13610;DHT22;6876;50.788;4.940;2022-07-18T03:53:53;14.70;99.90
13610;DHT22;6876;50.788;4.940;2022-07-18T03:56:40;14.80;99.90
13610;DHT22;6876;50.788;4.940;2022-07-18T03:59:28;14.90;99.90
13610;DHT22;6876;50.788;4.940;2022-07-18T04:02:15;15.00;99.90
13610;DHT22;6876;50.788;4.940;2022-07-18T04:05:02;15.10;99.90
13610;DHT22;6876;50.788;4.940;2022-07-18T04:07:50;15.10;99.90
13610;DHT22;6876;50.788;4.940;2022-07-18T04:10:38;15.30;99.90
13610;DHT22;6876;50.788;4.940;2022-07-18T04:13:26;15.40;99.90
13610;DHT22;6876;50.788;4.940;2022-07-18T04:16:14;15.40;99.90
13610;DHT22;6876;50.788;4.940;2022-07-18T04:19:01;15.40;99.90
13610;DHT22;6876;50.788;4.940;2022-07-18T04:21:48;15.50;99.90
13610;DHT22;6876;50.788;4.940;2022-07-18T04:24:36;15.60;99.90
13610;DHT22;6876;50.788;4.940;2022-07-18T04:27:24;15.60;99.90
13610;DHT22;6876;50.788;4.940;2022-07-18T04:30:13;15.70;99.90
13610;DHT22;6876;50.788;4.940;2022-07-18T04:33:02;15.90;99.90
13610;DHT22;6876;50.788;4.940;2022-07-18T04:35:49;16.10;99.90
13610;DHT22;6876;50.788;4.940;2022-07-18T04:38:37;16.20;99.90
13610;DHT22;6876;50.788;4.940;2022-07-18T04:41:24;16.30;99.90
13610;DHT22;6876;50.788;4.940;2022-07-18T04:44:12;16.60;99.90
13610;DHT22;6876;50.788;4.940;2022-07-18T04:47:00;17.30;99.90
13610;DHT22;6876;50.788;4.940;2022-07-18T04:49:47;18.00;99.90
13610;DHT22;6876;50.788;4.940;2022-07-18T04:52:37;18.90;99.90
13610;DHT22;6876;50.788;4.940;2022-07-18T04:55:25;19.40;99.90
13610;DHT22;6876;50.788;4.940;2022-07-18T04:58:16;19.90;99.90
13610;DHT22;6876;50.788;4.940;2022-07-18T05:01:05;20.60;99.90
13610;DHT22;6876;50.788;4.940;2022-07-18T05:03:52;21.00;99.90
13610;DHT22;6876;50.788;4.940;2022-07-18T05:06:39;21.20;99.90
13610;DHT22;6876;50.788;4.940;2022-07-18T05:09:26;21.50;99.90
13610;DHT22;6876;50.788;4.940;2022-07-18T05:12:14;21.70;99.90
13610;DHT22;6876;50.788;4.940;2022-07-18T05:15:03;21.80;99.90
13610;DHT22;6876;50.788;4.940;2022-07-18T05:17:52;21.90;99.90
13610;DHT22;6876;50.788;4.940;2022-07-18T05:20:40;22.30;99.90
13610;DHT22;6876;50.788;4.940;2022-07-18T05:23:27;22.60;99.90
13610;DHT22;6876;50.788;4.940;2022-07-18T05:26:14;22.90;99.90
13610;DHT22;6876;50.788;4.940;2022-07-18T05:29:02;23.10;99.90
13610;DHT22;6876;50.788;4.940;2022-07-18T05:31:49;23.40;99.90
13610;DHT22;6876;50.788;4.940;2022-07-18T05:34:38;23.80;99.90
13610;DHT22;6876;50.788;4.940;2022-07-18T05:37:25;24.30;99.90
13610;DHT22;6876;50.788;4.940;2022-07-18T05:40:13;24.70;99.90
13610;DHT22;6876;50.788;4.940;2022-07-18T05:43:01;24.80;99.90
13610;DHT22;6876;50.788;4.940;2022-07-18T05:45:48;25.00;99.90
13610;DHT22;6876;50.788;4.940;2022-07-18T05:48:35;25.10;99.90
13610;DHT22;6876;50.788;4.940;2022-07-18T05:51:24;25.30;99.90
13610;DHT22;6876;50.788;4.940;2022-07-18T05:54:12;25.40;99.90
13610;DHT22;6876;50.788;4.940;2022-07-18T05:57:04;25.90;99.90
13610;DHT22;6876;50.788;4.940;2022-07-18T05:59:52;26.40;99.90
13610;DHT22;6876;50.788;4.940;2022-07-18T06:02:39;26.70;99.50
13610;DHT22;6876;50.788;4.940;2022-07-18T06:05:27;27.10;98.90
13610;DHT22;6876;50.788;4.940;2022-07-18T06:08:15;27.40;98.40
13610;DHT22;6876;50.788;4.940;2022-07-18T06:11:03;27.70;97.60
13610;DHT22;6876;50.788;4.940;2022-07-18T06:13:52;28.00;97.30
13610;DHT22;6876;50.788;4.940;2022-07-18T06:16:39;28.30;96.70
13610;DHT22;6876;50.788;4.940;2022-07-18T06:19:27;28.60;96.10
13610;DHT22;6876;50.788;4.940;2022-07-18T06:22:14;28.70;95.50
13610;DHT22;6876;50.788;4.940;2022-07-18T06:25:04;28.70;95.00
13610;DHT22;6876;50.788;4.940;2022-07-18T06:27:52;29.00;94.50
13610;DHT22;6876;50.788;4.940;2022-07-18T06:30:39;29.50;94.00
13610;DHT22;6876;50.788;4.940;2022-07-18T06:33:26;29.80;93.80
13610;DHT22;6876;50.788;4.940;2022-07-18T06:36:13;30.00;93.40
13610;DHT22;6876;50.788;4.940;2022-07-18T06:39:01;30.40;92.60
13610;DHT22;6876;50.788;4.940;2022-07-18T06:41:55;30.70;92.60
13610;DHT22;6876;50.788;4.940;2022-07-18T06:44:44;31.00;92.40
13610;DHT22;6876;50.788;4.940;2022-07-18T06:47:31;31.40;91.20
13610;DHT22;6876;50.788;4.940;2022-07-18T06:50:18;31.80;90.60
13610;DHT22;6876;50.788;4.940;2022-07-18T06:53:05;32.20;87.60
13610;DHT22;6876;50.788;4.940;2022-07-18T06:55:52;32.30;87.90
13610;DHT22;6876;50.788;4.940;2022-07-18T06:58:41;32.60;86.60
13610;DHT22;6876;50.788;4.940;2022-07-18T07:01:34;32.90;85.40
13610;DHT22;6876;50.788;4.940;2022-07-18T07:04:21;33.20;84.70
13610;DHT22;6876;50.788;4.940;2022-07-18T07:07:09;33.40;82.80
13610;DHT22;6876;50.788;4.940;2022-07-18T07:09:56;33.80;80.60
13610;DHT22;6876;50.788;4.940;2022-07-18T07:12:45;34.10;80.80
13610;DHT22;6876;50.788;4.940;2022-07-18T07:15:34;34.30;76.30
13610;DHT22;6876;50.788;4.940;2022-07-18T07:18:22;34.20;72.10
13610;DHT22;6876;50.788;4.940;2022-07-18T07:21:09;34.30;69.70
13610;DHT22;6876;50.788;4.940;2022-07-18T07:23:56;34.60;69.60
13610;DHT22;6876;50.788;4.940;2022-07-18T07:26:44;34.80;67.90
13610;DHT22;6876;50.788;4.940;2022-07-18T07:29:31;35.00;67.90
13610;DHT22;6876;50.788;4.940;2022-07-18T07:32:19;35.30;67.10
13610;DHT22;6876;50.788;4.940;2022-07-18T07:35:07;34.90;63.80
13610;DHT22;6876;50.788;4.940;2022-07-18T07:37:58;35.10;63.40
13610;DHT22;6876;50.788;4.940;2022-07-18T07:40:46;35.30;62.20
13610;DHT22;6876;50.788;4.940;2022-07-18T07:43:34;35.50;60.00
13610;DHT22;6876;50.788;4.940;2022-07-18T07:46:22;35.40;60.40
13610;DHT22;6876;50.788;4.940;2022-07-18T07:49:10;35.40;59.20
13610;DHT22;6876;50.788;4.940;2022-07-18T07:51:58;35.50;58.20
13610;DHT22;6876;50.788;4.940;2022-07-18T07:54:46;35.80;58.10
13610;DHT22;6876;50.788;4.940;2022-07-18T07:57:33;35.80;58.40
13610;DHT22;6876;50.788;4.940;2022-07-18T08:00:22;35.70;56.80
13610;DHT22;6876;50.788;4.940;2022-07-18T08:03:09;35.80;57.20
13610;DHT22;6876;50.788;4.940;2022-07-18T08:05:58;36.00;57.80
13610;DHT22;6876;50.788;4.940;2022-07-18T08:08:45;36.20;56.20
13610;DHT22;6876;50.788;4.940;2022-07-18T08:11:32;36.50;55.80
13610;DHT22;6876;50.788;4.940;2022-07-18T08:14:19;36.40;55.00
13610;DHT22;6876;50.788;4.940;2022-07-18T08:17:07;36.40;55.30
13610;DHT22;6876;50.788;4.940;2022-07-18T08:19:54;36.90;54.70
13610;DHT22;6876;50.788;4.940;2022-07-18T08:22:54;36.90;54.00
13610;DHT22;6876;50.788;4.940;2022-07-18T08:25:43;36.40;54.40
13610;DHT22;6876;50.788;4.940;2022-07-18T08:28:31;36.00;53.80
13610;DHT22;6876;50.788;4.940;2022-07-18T08:31:18;36.40;54.10
13610;DHT22;6876;50.788;4.940;2022-07-18T08:34:06;36.50;54.70
13610;DHT22;6876;50.788;4.940;2022-07-18T08:36:53;36.40;53.30
13610;DHT22;6876;50.788;4.940;2022-07-18T08:39:41;36.80;52.80
13610;DHT22;6876;50.788;4.940;2022-07-18T08:42:29;37.00;53.10
13610;DHT22;6876;50.788;4.940;2022-07-18T08:45:20;37.50;52.90
13610;DHT22;6876;50.788;4.940;2022-07-18T08:48:08;37.10;52.90
13610;DHT22;6876;50.788;4.940;2022-07-18T08:50:55;37.10;52.00
13610;DHT22;6876;50.788;4.940;2022-07-18T08:53:43;37.00;52.30
13610;DHT22;6876;50.788;4.940;2022-07-18T08:56:34;37.50;52.30
13610;DHT22;6876;50.788;4.940;2022-07-18T08:59:21;37.80;52.30
13610;DHT22;6876;50.788;4.940;2022-07-18T09:02:09;37.60;52.10
13610;DHT22;6876;50.788;4.940;2022-07-18T09:04:56;37.90;52.00
13610;DHT22;6876;50.788;4.940;2022-07-18T09:07:43;38.00;51.80
13610;DHT22;6876;50.788;4.940;2022-07-18T09:10:40;38.00;51.50
13610;DHT22;6876;50.788;4.940;2022-07-18T09:13:37;38.40;50.10
13610;DHT22;6876;50.788;4.940;2022-07-18T09:16:24;38.60;50.00
13610;DHT22;6876;50.788;4.940;2022-07-18T09:19:16;38.40;50.00
13610;DHT22;6876;50.788;4.940;2022-07-18T09:22:17;38.50;50.40
13610;DHT22;6876;50.788;4.940;2022-07-18T09:25:07;38.60;49.20
13610;DHT22;6876;50.788;4.940;2022-07-18T09:27:55;38.70;49.20
13610;DHT22;6876;50.788;4.940;2022-07-18T09:30:43;39.00;49.70
13610;DHT22;6876;50.788;4.940;2022-07-18T09:33:31;39.20;48.50
13610;DHT22;6876;50.788;4.940;2022-07-18T09:36:18;39.40;48.30
13610;DHT22;6876;50.788;4.940;2022-07-18T09:39:18;39.20;48.60
13610;DHT22;6876;50.788;4.940;2022-07-18T09:42:13;39.50;48.20
13610;DHT22;6876;50.788;4.940;2022-07-18T09:45:01;39.40;49.20
13610;DHT22;6876;50.788;4.940;2022-07-18T09:47:52;39.60;47.80
13610;DHT22;6876;50.788;4.940;2022-07-18T09:50:41;39.30;48.30
13610;DHT22;6876;50.788;4.940;2022-07-18T09:53:31;39.10;48.10
13610;DHT22;6876;50.788;4.940;2022-07-18T09:56:23;39.10;47.60
13610;DHT22;6876;50.788;4.940;2022-07-18T09:59:11;38.70;46.40
13610;DHT22;6876;50.788;4.940;2022-07-18T10:01:59;38.60;46.90
13610;DHT22;6876;50.788;4.940;2022-07-18T10:04:47;38.70;46.70
13610;DHT22;6876;50.788;4.940;2022-07-18T10:07:36;38.10;46.20
13610;DHT22;6876;50.788;4.940;2022-07-18T10:10:23;37.90;46.40
13610;DHT22;6876;50.788;4.940;2022-07-18T10:13:12;37.80;46.10
13610;DHT22;6876;50.788;4.940;2022-07-18T10:16:00;37.80;46.70
13610;DHT22;6876;50.788;4.940;2022-07-18T10:18:47;38.00;46.50
13610;DHT22;6876;50.788;4.940;2022-07-18T10:21:36;37.90;45.90
13610;DHT22;6876;50.788;4.940;2022-07-18T10:24:24;37.70;44.80
13610;DHT22;6876;50.788;4.940;2022-07-18T10:27:14;37.50;43.70
13610;DHT22;6876;50.788;4.940;2022-07-18T10:30:10;37.50;44.80
13610;DHT22;6876;50.788;4.940;2022-07-18T10:32:57;37.80;44.40
13610;DHT22;6876;50.788;4.940;2022-07-18T10:36:03;37.70;44.50
13610;DHT22;6876;50.788;4.940;2022-07-18T10:39:06;37.50;44.40
13610;DHT22;6876;50.788;4.940;2022-07-18T10:42:17;37.30;43.80
13610;DHT22;6876;50.788;4.940;2022-07-18T10:45:25;37.20;45.20
13610;DHT22;6876;50.788;4.940;2022-07-18T10:51:39;37.00;44.40
13610;DHT22;6876;50.788;4.940;2022-07-18T10:54:28;36.90;44.20
13610;DHT22;6876;50.788;4.940;2022-07-18T10:57:15;37.20;45.10
13610;DHT22;6876;50.788;4.940;2022-07-18T11:00:06;37.30;43.70
13610;DHT22;6876;50.788;4.940;2022-07-18T11:03:04;37.30;43.80
13610;DHT22;6876;50.788;4.940;2022-07-18T11:05:54;37.20;43.90
13610;DHT22;6876;50.788;4.940;2022-07-18T11:08:42;37.10;44.50
13610;DHT22;6876;50.788;4.940;2022-07-18T11:11:31;37.30;44.80
13610;DHT22;6876;50.788;4.940;2022-07-18T11:17:56;37.60;43.20
13610;DHT22;6876;50.788;4.940;2022-07-18T11:20:44;37.20;42.40
13610;DHT22;6876;50.788;4.940;2022-07-18T11:23:42;37.20;44.20
13610;DHT22;6876;50.788;4.940;2022-07-18T11:26:31;37.40;43.70
13610;DHT22;6876;50.788;4.940;2022-07-18T11:29:19;37.60;43.10
13610;DHT22;6876;50.788;4.940;2022-07-18T11:32:07;37.60;42.70
13610;DHT22;6876;50.788;4.940;2022-07-18T11:34:54;37.90;43.60
13610;DHT22;6876;50.788;4.940;2022-07-18T11:37:46;37.80;44.30
13610;DHT22;6876;50.788;4.940;2022-07-18T11:40:48;37.50;44.50
13610;DHT22;6876;50.788;4.940;2022-07-18T11:43:37;37.40;44.00
13610;DHT22;6876;50.788;4.940;2022-07-18T11:46:26;37.10;44.20
13610;DHT22;6876;50.788;4.940;2022-07-18T11:49:15;36.60;44.40
13610;DHT22;6876;50.788;4.940;2022-07-18T11:52:02;36.50;44.10
13610;DHT22;6876;50.788;4.940;2022-07-18T11:54:50;36.40;43.70
13610;DHT22;6876;50.788;4.940;2022-07-18T11:57:37;36.60;44.50
13610;DHT22;6876;50.788;4.940;2022-07-18T12:00:26;36.80;44.20
13610;DHT22;6876;50.788;4.940;2022-07-18T12:03:15;36.30;43.70
13610;DHT22;6876;50.788;4.940;2022-07-18T12:06:10;36.60;44.40
13610;DHT22;6876;50.788;4.940;2022-07-18T12:08:58;36.60;45.40
13610;DHT22;6876;50.788;4.940;2022-07-18T12:11:49;36.60;44.50
13610;DHT22;6876;50.788;4.940;2022-07-18T12:14:36;36.70;45.90
13610;DHT22;6876;50.788;4.940;2022-07-18T12:17:26;36.60;45.10
13610;DHT22;6876;50.788;4.940;2022-07-18T12:20:16;36.30;45.40
13610;DHT22;6876;50.788;4.940;2022-07-18T12:23:06;36.10;45.40
13610;DHT22;6876;50.788;4.940;2022-07-18T12:25:57;35.80;45.10
13610;DHT22;6876;50.788;4.940;2022-07-18T12:28:46;35.80;43.90
13610;DHT22;6876;50.788;4.940;2022-07-18T12:31:39;35.60;43.80
13610;DHT22;6876;50.788;4.940;2022-07-18T12:34:27;35.80;44.90
13610;DHT22;6876;50.788;4.940;2022-07-18T12:37:22;36.10;44.80
13610;DHT22;6876;50.788;4.940;2022-07-18T12:40:11;36.20;44.50
13610;DHT22;6876;50.788;4.940;2022-07-18T12:43:04;36.20;44.70
13610;DHT22;6876;50.788;4.940;2022-07-18T12:45:54;36.10;45.30
13610;DHT22;6876;50.788;4.940;2022-07-18T12:48:42;36.00;44.60
13610;DHT22;6876;50.788;4.940;2022-07-18T12:51:31;36.20;45.40
13610;DHT22;6876;50.788;4.940;2022-07-18T12:54:19;36.20;44.70
13610;DHT22;6876;50.788;4.940;2022-07-18T12:57:06;36.30;42.90
13610;DHT22;6876;50.788;4.940;2022-07-18T12:59:53;36.30;43.20
13610;DHT22;6876;50.788;4.940;2022-07-18T13:02:42;36.20;44.10
13610;DHT22;6876;50.788;4.940;2022-07-18T13:05:30;36.30;44.90
13610;DHT22;6876;50.788;4.940;2022-07-18T13:08:19;36.10;44.60
13610;DHT22;6876;50.788;4.940;2022-07-18T13:11:08;35.90;44.20
13610;DHT22;6876;50.788;4.940;2022-07-18T13:13:55;35.80;44.50
13610;DHT22;6876;50.788;4.940;2022-07-18T13:16:43;35.80;45.40
13610;DHT22;6876;50.788;4.940;2022-07-18T13:19:31;35.90;44.80
13610;DHT22;6876;50.788;4.940;2022-07-18T13:22:18;35.90;44.30
13610;DHT22;6876;50.788;4.940;2022-07-18T13:25:09;36.00;44.30
13610;DHT22;6876;50.788;4.940;2022-07-18T13:27:57;35.90;43.40
13610;DHT22;6876;50.788;4.940;2022-07-18T13:30:44;35.60;44.70
13610;DHT22;6876;50.788;4.940;2022-07-18T13:33:32;35.70;44.10
13610;DHT22;6876;50.788;4.940;2022-07-18T13:36:19;35.70;43.70
13610;DHT22;6876;50.788;4.940;2022-07-18T13:39:06;35.60;43.40
13610;DHT22;6876;50.788;4.940;2022-07-18T13:41:55;35.70;44.70
13610;DHT22;6876;50.788;4.940;2022-07-18T13:44:42;35.70;43.70
13610;DHT22;6876;50.788;4.940;2022-07-18T13:47:31;35.80;42.70
13610;DHT22;6876;50.788;4.940;2022-07-18T13:50:18;35.70;43.90
13610;DHT22;6876;50.788;4.940;2022-07-18T13:53:06;35.70;43.30
13610;DHT22;6876;50.788;4.940;2022-07-18T13:55:53;35.80;43.20
13610;DHT22;6876;50.788;4.940;2022-07-18T13:58:42;35.90;43.20
13610;DHT22;6876;50.788;4.940;2022-07-18T14:01:29;35.70;44.00
13610;DHT22;6876;50.788;4.940;2022-07-18T14:04:16;35.70;44.30
13610;DHT22;6876;50.788;4.940;2022-07-18T14:07:04;35.80;43.40
13610;DHT22;6876;50.788;4.940;2022-07-18T14:09:52;35.90;43.50
13610;DHT22;6876;50.788;4.940;2022-07-18T14:12:40;35.90;44.10
13610;DHT22;6876;50.788;4.940;2022-07-18T14:15:29;35.70;43.70
13610;DHT22;6876;50.788;4.940;2022-07-18T14:18:16;35.70;43.60
13610;DHT22;6876;50.788;4.940;2022-07-18T14:21:03;35.70;43.80
13610;DHT22;6876;50.788;4.940;2022-07-18T14:23:51;35.80;43.90
13610;DHT22;6876;50.788;4.940;2022-07-18T14:26:38;35.70;44.80
13610;DHT22;6876;50.788;4.940;2022-07-18T14:29:25;35.70;44.50
13610;DHT22;6876;50.788;4.940;2022-07-18T14:32:14;35.50;42.70
13610;DHT22;6876;50.788;4.940;2022-07-18T14:35:01;35.30;44.30
13610;DHT22;6876;50.788;4.940;2022-07-18T14:37:49;35.40;43.70
13610;DHT22;6876;50.788;4.940;2022-07-18T14:40:36;35.40;43.40
13610;DHT22;6876;50.788;4.940;2022-07-18T14:43:24;35.50;43.50
13610;DHT22;6876;50.788;4.940;2022-07-18T14:46:11;35.30;42.90
13610;DHT22;6876;50.788;4.940;2022-07-18T14:48:59;35.40;43.80
13610;DHT22;6876;50.788;4.940;2022-07-18T14:51:47;35.40;44.40
13610;DHT22;6876;50.788;4.940;2022-07-18T14:54:34;35.40;44.50
13610;DHT22;6876;50.788;4.940;2022-07-18T14:57:21;35.40;43.70
13610;DHT22;6876;50.788;4.940;2022-07-18T15:00:10;35.30;43.90
13610;DHT22;6876;50.788;4.940;2022-07-18T15:02:57;35.30;44.70
13610;DHT22;6876;50.788;4.940;2022-07-18T15:05:46;35.20;43.80
13610;DHT22;6876;50.788;4.940;2022-07-18T15:08:33;35.30;45.10
13610;DHT22;6876;50.788;4.940;2022-07-18T15:11:20;35.30;43.50
13610;DHT22;6876;50.788;4.940;2022-07-18T15:14:10;35.20;44.20
13610;DHT22;6876;50.788;4.940;2022-07-18T15:16:57;35.30;45.20
13610;DHT22;6876;50.788;4.940;2022-07-18T15:19:45;35.40;44.10
13610;DHT22;6876;50.788;4.940;2022-07-18T15:22:40;35.40;43.90
13610;DHT22;6876;50.788;4.940;2022-07-18T15:25:30;35.60;43.40
13610;DHT22;6876;50.788;4.940;2022-07-18T15:28:17;35.50;43.00
13610;DHT22;6876;50.788;4.940;2022-07-18T15:31:07;35.50;44.10
13610;DHT22;6876;50.788;4.940;2022-07-18T15:33:55;35.50;44.40
13610;DHT22;6876;50.788;4.940;2022-07-18T15:36:43;35.30;44.70
13610;DHT22;6876;50.788;4.940;2022-07-18T15:39:32;35.20;45.00
13610;DHT22;6876;50.788;4.940;2022-07-18T15:42:19;35.20;45.10
13610;DHT22;6876;50.788;4.940;2022-07-18T15:45:07;35.30;45.30
13610;DHT22;6876;50.788;4.940;2022-07-18T15:47:54;35.30;44.60
13610;DHT22;6876;50.788;4.940;2022-07-18T15:50:42;35.40;44.00
13610;DHT22;6876;50.788;4.940;2022-07-18T15:53:29;35.30;44.00
13610;DHT22;6876;50.788;4.940;2022-07-18T15:56:18;35.40;44.20
13610;DHT22;6876;50.788;4.940;2022-07-18T15:59:05;35.40;44.20
13610;DHT22;6876;50.788;4.940;2022-07-18T16:01:52;35.10;45.80
13610;DHT22;6876;50.788;4.940;2022-07-18T16:04:41;35.00;45.40
13610;DHT22;6876;50.788;4.940;2022-07-18T16:07:28;35.10;46.10
13610;DHT22;6876;50.788;4.940;2022-07-18T16:10:16;35.20;47.00
13610;DHT22;6876;50.788;4.940;2022-07-18T16:13:04;35.20;45.80
13610;DHT22;6876;50.788;4.940;2022-07-18T16:15:52;35.00;46.00
13610;DHT22;6876;50.788;4.940;2022-07-18T16:18:39;34.70;45.50
13610;DHT22;6876;50.788;4.940;2022-07-18T16:21:27;34.60;45.50
13610;DHT22;6876;50.788;4.940;2022-07-18T16:24:14;34.50;46.00
13610;DHT22;6876;50.788;4.940;2022-07-18T16:27:02;34.50;46.10
13610;DHT22;6876;50.788;4.940;2022-07-18T16:29:50;34.60;46.40
13610;DHT22;6876;50.788;4.940;2022-07-18T16:32:38;34.60;45.60
13610;DHT22;6876;50.788;4.940;2022-07-18T16:35:25;34.70;45.70
13610;DHT22;6876;50.788;4.940;2022-07-18T16:38:12;34.70;45.20
13610;DHT22;6876;50.788;4.940;2022-07-18T16:41:00;34.60;45.60
13610;DHT22;6876;50.788;4.940;2022-07-18T16:43:48;34.50;45.40
13610;DHT22;6876;50.788;4.940;2022-07-18T16:46:38;34.50;45.40
13610;DHT22;6876;50.788;4.940;2022-07-18T16:49:26;34.50;45.80
13610;DHT22;6876;50.788;4.940;2022-07-18T16:52:14;34.50;45.60
13610;DHT22;6876;50.788;4.940;2022-07-18T16:55:01;34.50;45.40
13610;DHT22;6876;50.788;4.940;2022-07-18T16:57:49;34.50;46.30
13610;DHT22;6876;50.788;4.940;2022-07-18T17:00:37;34.50;46.10
13610;DHT22;6876;50.788;4.940;2022-07-18T17:03:26;34.40;45.80
13610;DHT22;6876;50.788;4.940;2022-07-18T17:06:14;34.40;45.70
13610;DHT22;6876;50.788;4.940;2022-07-18T17:09:03;34.40;45.50
13610;DHT22;6876;50.788;4.940;2022-07-18T17:11:52;34.30;45.30
13610;DHT22;6876;50.788;4.940;2022-07-18T17:14:40;34.10;46.10
13610;DHT22;6876;50.788;4.940;2022-07-18T17:17:28;34.10;46.50
13610;DHT22;6876;50.788;4.940;2022-07-18T17:20:18;34.10;45.80
13610;DHT22;6876;50.788;4.940;2022-07-18T17:23:08;34.00;46.00
13610;DHT22;6876;50.788;4.940;2022-07-18T17:25:56;34.00;46.20
13610;DHT22;6876;50.788;4.940;2022-07-18T17:28:44;34.00;45.60
13610;DHT22;6876;50.788;4.940;2022-07-18T17:31:32;34.00;45.70
13610;DHT22;6876;50.788;4.940;2022-07-18T17:34:20;34.00;46.40
13610;DHT22;6876;50.788;4.940;2022-07-18T17:37:15;34.00;46.70
13610;DHT22;6876;50.788;4.940;2022-07-18T17:40:06;33.90;48.50
13610;DHT22;6876;50.788;4.940;2022-07-18T17:42:54;33.80;49.00
13610;DHT22;6876;50.788;4.940;2022-07-18T17:45:42;33.80;49.40
13610;DHT22;6876;50.788;4.940;2022-07-18T17:48:30;33.60;49.10
13610;DHT22;6876;50.788;4.940;2022-07-18T17:51:18;33.50;49.40
13610;DHT22;6876;50.788;4.940;2022-07-18T17:54:07;33.50;50.00
13610;DHT22;6876;50.788;4.940;2022-07-18T17:56:55;33.40;50.20
13610;DHT22;6876;50.788;4.940;2022-07-18T17:59:42;33.40;50.60
13610;DHT22;6876;50.788;4.940;2022-07-18T18:02:29;33.30;50.70
13610;DHT22;6876;50.788;4.940;2022-07-18T18:05:17;33.20;50.30
13610;DHT22;6876;50.788;4.940;2022-07-18T18:08:05;33.20;50.30